Terminal Aerodrome Forecast
Issued by NWS Sioux Falls, SD

Home | Current Version | Previous Version | Text Only | Print | Product List | Glossary Off
Versions: 1 2 3 4 5 6 7 8 9 10 11 12 13 14 15 16 17 18 19 20 21

000
FTUS43 KFSD 201722
TAFFSD
TAF
KFSD 201722Z 2018/2118 32013G18KT P6SM SCT020 BKN060
      TEMPO 2018/2019 6SM -SN BKN020 OVC060
     FM201930 32013G18KT P6SM FEW025
     FM202300 31009KT P6SM FEW250
     FM210600 30005KT P6SM SKC=

USA.gov is the U.S. government's official web portal to all federal, state and local government web resources and services.